createdAt,value
2023-02-07T00:00:42.758Z,68.04
2023-02-07T00:03:45.376Z,68.58
2023-02-07T00:06:46.883Z,68.94
2023-02-07T00:09:48.371Z,68.93
2023-02-07T00:12:50.195Z,69.05
2023-02-07T00:15:51.699Z,69.26
2023-02-07T00:18:55.556Z,69.86
2023-02-07T00:21:57.048Z,69.94
2023-02-07T00:24:58.537Z,69.68
2023-02-07T00:28:00.203Z,69.41
2023-02-07T00:31:20.846Z,69.66
2023-02-07T00:34:22.400Z,69.26
2023-02-07T00:37:23.881Z,69.51
2023-02-07T00:40:25.412Z,68.94
2023-02-07T00:43:29.873Z,67.54
2023-02-07T00:46:32.212Z,67.49
2023-02-07T00:49:33.776Z,66.95
2023-02-07T00:52:35.279Z,66.67
2023-02-07T00:55:37.021Z,66.83
2023-02-07T00:58:38.620Z,67.07
2023-02-07T01:01:41.281Z,67.45
2023-02-07T01:04:42.894Z,67.67
2023-02-07T01:07:44.439Z,68.17
2023-02-07T01:10:46.305Z,68.46
2023-02-07T01:13:47.830Z,68.40
2023-02-07T01:16:50.046Z,68.77
2023-02-07T01:19:56.668Z,68.51
2023-02-07T01:22:58.189Z,68.63
2023-02-07T01:25:59.654Z,69.07
2023-02-07T01:29:02.467Z,69.15
2023-02-07T01:32:04.138Z,69.69
2023-02-07T01:35:05.944Z,70.11
2023-02-07T01:38:07.997Z,69.78
2023-02-07T01:41:10.602Z,70.02
2023-02-07T01:44:24.442Z,70.32
2023-02-07T01:47:26.943Z,70.40
2023-02-07T01:50:29.294Z,70.38
2023-02-07T01:53:31.417Z,70.31
2023-02-07T01:56:36.136Z,70.45
2023-02-07T01:59:40.896Z,69.83
2023-02-07T02:02:43.002Z,69.86
2023-02-07T02:05:46.359Z,69.83
2023-02-07T02:08:49.841Z,70.44
2023-02-07T02:12:22.586Z,69.74
2023-02-07T02:15:33.678Z,70.01
2023-02-07T02:19:29.531Z,69.69
2023-02-07T02:23:05.684Z,69.96
2023-02-07T02:26:37.785Z,69.69
2023-02-07T02:30:06.993Z,69.19
2023-02-07T02:33:09.096Z,69.21
2023-02-07T02:36:25.725Z,69.98
2023-02-07T02:39:40.867Z,70.42
2023-02-07T02:42:54.054Z,70.17
2023-02-07T02:46:01.689Z,70.29
2023-02-07T02:49:06.476Z,70.36
2023-02-07T02:52:08.052Z,69.97
2023-02-07T02:55:09.643Z,69.60
2023-02-07T02:58:20.134Z,69.42
2023-02-07T03:01:35.987Z,69.19
2023-02-07T03:04:54.885Z,69.00
2023-02-07T03:08:25.506Z,67.88
2023-02-07T03:11:32.289Z,67.94
2023-02-07T03:14:45.523Z,68.07
2023-02-07T03:18:08.016Z,67.89
2023-02-07T03:21:21.880Z,67.97
2023-02-07T03:24:29.013Z,68.04
2023-02-07T03:27:32.226Z,68.29
2023-02-07T03:30:36.047Z,68.31
2023-02-07T03:33:38.348Z,68.13
2023-02-07T03:36:50.514Z,68.54
2023-02-07T03:39:52.503Z,68.98
2023-02-07T03:43:04.660Z,68.91
2023-02-07T03:46:09.492Z,68.36
2023-02-07T03:49:11.579Z,68.53
2023-02-07T03:52:13.042Z,68.86
2023-02-07T03:55:14.512Z,68.24
2023-02-07T03:58:15.961Z,68.39
2023-02-07T04:01:17.663Z,68.25
2023-02-07T04:04:19.317Z,68.38
2023-02-07T04:07:20.858Z,68.31
2023-02-07T04:10:22.558Z,68.51
2023-02-07T04:13:24.047Z,68.37
2023-02-07T04:16:25.965Z,68.64
2023-02-07T04:19:27.462Z,68.80
2023-02-07T04:22:29.599Z,68.62
2023-02-07T04:25:31.199Z,68.27
2023-02-07T04:28:32.969Z,69.06
2023-02-07T04:31:34.649Z,68.54
2023-02-07T04:34:36.080Z,69.03
2023-02-07T04:37:37.617Z,69.45
2023-02-07T04:40:39.327Z,69.72
2023-02-07T04:43:40.811Z,69.93
2023-02-07T04:46:42.294Z,70.09
2023-02-07T04:49:43.882Z,70.04
2023-02-07T04:52:45.292Z,69.93
2023-02-07T04:55:51.159Z,70.38
2023-02-07T04:58:52.875Z,69.97
2023-02-07T05:01:54.385Z,69.88
2023-02-07T05:04:55.881Z,69.72
2023-02-07T05:07:57.455Z,69.65
2023-02-07T05:10:59.065Z,69.49
2023-02-07T05:14:00.574Z,69.48
2023-02-07T05:17:02.063Z,68.90
2023-02-07T05:20:03.638Z,69.28
2023-02-07T05:23:05.160Z,69.47
2023-02-07T05:26:06.729Z,68.79
2023-02-07T05:29:08.511Z,69.18
2023-02-07T05:32:32.809Z,69.19
2023-02-07T05:35:40.338Z,69.40
2023-02-07T05:38:42.008Z,69.56
2023-02-07T05:41:43.460Z,69.50
2023-02-07T05:44:45.366Z,69.28
2023-02-07T05:47:47.249Z,69.00
2023-02-07T05:50:48.793Z,69.03
2023-02-07T05:53:50.290Z,69.72
2023-02-07T05:56:51.835Z,69.06
2023-02-07T05:59:53.265Z,69.42
2023-02-07T06:02:54.811Z,69.19
2023-02-07T06:05:56.272Z,69.44
2023-02-07T06:08:57.791Z,69.47
2023-02-07T06:11:59.291Z,69.47
2023-02-07T06:15:00.905Z,69.71
2023-02-07T06:18:02.474Z,69.53
2023-02-07T06:21:04.500Z,69.58
2023-02-07T06:24:06.876Z,69.98
2023-02-07T06:27:08.397Z,70.06
2023-02-07T06:30:12.448Z,70.00
2023-02-07T06:33:13.859Z,70.61
2023-02-07T06:36:15.322Z,70.63
2023-02-07T06:39:16.775Z,70.35
2023-02-07T06:42:18.295Z,70.59
2023-02-07T06:45:20.026Z,70.76
2023-02-07T06:48:21.833Z,70.02
2023-02-07T06:51:23.534Z,70.25
2023-02-07T06:54:25.116Z,70.45
2023-02-07T06:57:26.602Z,70.39
2023-02-07T07:00:29.791Z,70.76
2023-02-07T07:03:31.428Z,70.85
2023-02-07T07:06:33.534Z,70.91
2023-02-07T07:09:35.174Z,70.88
2023-02-07T07:12:36.801Z,70.92
2023-02-07T07:15:38.462Z,71.22
2023-02-07T07:18:40.270Z,71.32
2023-02-07T07:21:41.796Z,71.07
2023-02-07T07:24:43.691Z,70.91
2023-02-07T07:27:45.409Z,70.77
2023-02-07T07:30:47.082Z,71.05
2023-02-07T07:33:48.612Z,70.96
2023-02-07T07:36:50.168Z,71.05
2023-02-07T07:39:51.686Z,70.93
2023-02-07T07:42:53.234Z,71.17
2023-02-07T07:46:04.261Z,71.10
2023-02-07T07:49:05.782Z,71.11
2023-02-07T07:52:07.613Z,70.78
2023-02-07T07:55:10.153Z,70.69
2023-02-07T07:58:11.680Z,69.87
2023-02-07T08:01:13.212Z,68.89
2023-02-07T08:04:14.689Z,68.60
2023-02-07T08:07:16.197Z,68.15
2023-02-07T08:10:17.661Z,68.01
2023-02-07T08:13:20.106Z,68.34
2023-02-07T08:16:21.636Z,67.78
2023-02-07T08:19:24.277Z,68.05
2023-02-07T08:22:25.828Z,67.95
2023-02-07T08:25:27.428Z,68.11
2023-02-07T08:28:29.519Z,67.92
2023-02-07T08:31:31.228Z,67.77
2023-02-07T08:34:37.400Z,67.87
2023-02-07T08:37:39.271Z,67.57
2023-02-07T08:40:41.122Z,67.17
2023-02-07T08:43:42.829Z,66.95
2023-02-07T08:46:44.270Z,66.27
2023-02-07T08:49:45.828Z,65.35
2023-02-07T08:52:47.290Z,65.51
2023-02-07T08:55:48.872Z,64.74
2023-02-07T08:58:50.302Z,64.05
2023-02-07T09:01:51.976Z,63.73
2023-02-07T09:04:53.670Z,64.28
2023-02-07T09:07:55.102Z,63.44
2023-02-07T09:10:56.654Z,63.22
2023-02-07T09:13:58.127Z,63.40
2023-02-07T09:16:59.697Z,63.33
2023-02-07T09:20:01.369Z,63.22
2023-02-07T09:23:17.839Z,62.56
2023-02-07T09:26:22.087Z,63.19
2023-02-07T09:29:23.989Z,62.56
2023-02-07T09:32:25.653Z,62.78
2023-02-07T09:35:27.236Z,62.60
2023-02-07T09:38:29.205Z,63.17
2023-02-07T09:41:41.348Z,62.95
2023-02-07T09:45:03.546Z,62.67
2023-02-07T09:48:15.577Z,63.05
2023-02-07T09:51:20.898Z,63.24
2023-02-07T09:54:33.069Z,62.54
2023-02-07T09:57:44.416Z,62.30
2023-02-07T10:00:53.839Z,62.04
2023-02-07T10:04:07.537Z,61.79
2023-02-07T10:07:13.191Z,61.64
2023-02-07T10:10:24.254Z,61.50
2023-02-07T10:13:31.557Z,61.27
2023-02-07T10:16:44.536Z,60.80
2023-02-07T10:19:58.196Z,60.99
2023-02-07T10:23:05.961Z,60.96
2023-02-07T10:26:10.437Z,61.12
2023-02-07T10:30:05.001Z,61.06
2023-02-07T10:33:14.426Z,60.58
2023-02-07T10:36:17.311Z,60.21
2023-02-07T10:39:21.784Z,60.24
2023-02-07T10:42:24.398Z,59.96
2023-02-07T10:45:25.866Z,60.09
2023-02-07T10:48:28.363Z,59.64
2023-02-07T10:51:29.789Z,59.53
2023-02-07T10:54:51.383Z,59.38
2023-02-07T10:58:01.455Z,59.39
2023-02-07T11:01:06.117Z,58.98
2023-02-07T11:04:23.743Z,58.59
2023-02-07T11:07:26.408Z,59.00
2023-02-07T11:10:48.818Z,58.85
2023-02-07T11:13:52.108Z,58.52
2023-02-07T11:16:59.167Z,58.17
2023-02-07T11:20:16.686Z,58.13
2023-02-07T11:23:18.294Z,58.63
2023-02-07T11:26:21.765Z,58.30
2023-02-07T11:29:25.822Z,57.91
2023-02-07T11:32:28.740Z,58.64
2023-02-07T11:35:30.301Z,57.50
2023-02-07T11:38:36.136Z,57.46
2023-02-07T11:41:38.721Z,57.41
2023-02-07T11:44:45.837Z,57.20
2023-02-07T11:47:49.569Z,56.90
2023-02-07T11:50:56.617Z,56.77
2023-02-07T11:54:02.224Z,56.89
2023-02-07T11:57:13.109Z,57.18
2023-02-07T12:00:23.536Z,57.01
2023-02-07T12:03:28.254Z,57.34
2023-02-07T12:06:43.962Z,57.50
2023-02-07T12:10:05.826Z,56.78
2023-02-07T12:13:12.115Z,57.00
2023-02-07T12:16:21.380Z,56.96
2023-02-07T12:19:29.909Z,56.62
2023-02-07T12:23:21.512Z,56.78
2023-02-07T12:26:47.613Z,56.69
2023-02-07T12:30:04.470Z,56.25
2023-02-07T12:33:31.645Z,56.13
2023-02-07T12:36:53.088Z,56.05
2023-02-07T12:40:12.521Z,56.31
2023-02-07T12:43:38.592Z,55.93
2023-02-07T12:46:58.033Z,55.90
2023-02-07T12:50:08.367Z,57.10
2023-02-07T12:53:36.840Z,56.83
2023-02-07T12:57:03.194Z,56.19
2023-02-07T13:00:28.715Z,57.10
2023-02-07T13:04:07.320Z,56.10
2023-02-07T13:07:48.453Z,56.59
2023-02-07T13:10:58.979Z,56.92
2023-02-07T13:14:30.125Z,57.35
2023-02-07T13:17:43.437Z,57.37
2023-02-07T13:20:47.904Z,56.99
2023-02-07T13:23:49.574Z,56.65
2023-02-07T13:27:17.404Z,56.42
2023-02-07T13:30:20.634Z,57.40
2023-02-07T13:33:34.852Z,57.21
2023-02-07T13:36:42.712Z,57.26
2023-02-07T13:39:57.133Z,58.36
2023-02-07T13:43:09.534Z,59.14
2023-02-07T13:46:42.681Z,59.86
2023-02-07T13:50:01.890Z,60.30
2023-02-07T13:53:15.414Z,60.34
2023-02-07T13:56:35.828Z,60.58
2023-02-07T13:59:38.931Z,60.49
2023-02-07T14:02:44.910Z,60.91
2023-02-07T14:05:46.622Z,60.86
2023-02-07T14:09:01.093Z,61.29
2023-02-07T14:12:06.634Z,61.42
2023-02-07T14:15:41.864Z,61.78
2023-02-07T14:18:49.747Z,61.51
2023-02-07T14:22:13.758Z,62.17
2023-02-07T14:25:42.431Z,61.83
2023-02-07T14:28:46.124Z,62.26
2023-02-07T14:31:49.523Z,62.45
2023-02-07T14:35:06.505Z,61.64
2023-02-07T14:38:07.901Z,62.24
2023-02-07T14:41:12.719Z,61.70
2023-02-07T14:44:37.805Z,61.88
2023-02-07T14:47:39.329Z,62.04
2023-02-07T14:50:41.010Z,62.45
2023-02-07T14:53:45.188Z,61.60
2023-02-07T14:56:50.107Z,61.33
2023-02-07T15:00:02.171Z,59.99
2023-02-07T15:03:12.540Z,60.31
2023-02-07T15:06:30.681Z,61.69
2023-02-07T15:09:34.811Z,62.01
2023-02-07T15:12:36.396Z,62.65
2023-02-07T15:15:47.616Z,63.05
2023-02-07T15:18:49.256Z,63.71
2023-02-07T15:21:51.278Z,63.70
2023-02-07T15:24:57.517Z,64.11
2023-02-07T15:28:27.050Z,64.85
2023-02-07T15:31:30.450Z,65.32
2023-02-07T15:34:33.499Z,66.00
2023-02-07T15:37:34.991Z,65.93
2023-02-07T15:40:36.528Z,66.12
2023-02-07T15:43:38.086Z,65.93
2023-02-07T15:46:54.627Z,66.40
2023-02-07T15:50:04.286Z,66.87
2023-02-07T15:53:08.595Z,66.90
2023-02-07T15:56:15.178Z,66.90
2023-02-07T15:59:21.112Z,67.52
2023-02-07T16:02:32.979Z,67.44
2023-02-07T16:05:37.906Z,67.60
2023-02-07T16:08:42.371Z,67.60
2023-02-07T16:11:43.916Z,68.40
2023-02-07T16:14:45.387Z,68.24
2023-02-07T16:17:46.969Z,68.72
2023-02-07T16:20:48.617Z,68.79
2023-02-07T16:23:53.738Z,68.86
2023-02-07T16:26:56.078Z,69.35
2023-02-07T16:29:59.408Z,69.80
2023-02-07T16:33:05.638Z,70.38
2023-02-07T16:36:17.936Z,71.18
2023-02-07T16:39:20.327Z,72.18
2023-02-07T16:42:21.830Z,72.74
2023-02-07T16:45:26.426Z,74.53
2023-02-07T16:48:28.076Z,75.71
2023-02-07T16:51:29.564Z,76.41
2023-02-07T16:54:31.320Z,76.95
2023-02-07T16:57:32.803Z,78.03
2023-02-07T17:00:34.624Z,78.90
2023-02-07T17:03:36.070Z,79.37
2023-02-07T17:06:38.302Z,80.23
2023-02-07T17:09:39.852Z,81.45
2023-02-07T17:12:43.071Z,81.61
2023-02-07T17:15:44.553Z,82.13
2023-02-07T17:18:46.305Z,82.41
2023-02-07T17:21:49.423Z,82.46
2023-02-07T17:24:53.633Z,82.80
2023-02-07T17:27:55.778Z,83.68
2023-02-07T17:30:57.287Z,84.66
2023-02-07T17:33:59.402Z,84.72
2023-02-07T17:37:00.941Z,84.91
2023-02-07T17:40:02.559Z,85.25
2023-02-07T17:43:05.110Z,85.76
2023-02-07T17:46:21.832Z,86.00
2023-02-07T17:49:23.261Z,86.54
2023-02-07T17:52:24.777Z,86.83
2023-02-07T17:55:26.298Z,87.43
2023-02-07T17:58:29.498Z,88.05
2023-02-07T18:01:32.316Z,87.93
2023-02-07T18:04:33.794Z,88.82
2023-02-07T18:07:35.443Z,88.65
2023-02-07T18:10:37.232Z,89.42
2023-02-07T18:13:39.435Z,89.57
2023-02-07T18:16:41.533Z,89.75
2023-02-07T18:19:43.046Z,90.11
2023-02-07T18:22:44.573Z,89.39
2023-02-07T18:25:50.697Z,90.00
2023-02-07T18:28:52.390Z,90.95
2023-02-07T18:31:53.918Z,90.85
2023-02-07T18:34:55.457Z,91.02
2023-02-07T18:37:56.927Z,90.97
2023-02-07T18:40:58.421Z,91.74
2023-02-07T18:43:59.884Z,90.94
2023-02-07T18:47:01.484Z,91.49
2023-02-07T18:50:03.108Z,92.38
2023-02-07T18:53:05.408Z,92.33
2023-02-07T18:56:09.947Z,92.64
2023-02-07T18:59:11.442Z,92.69
2023-02-07T19:02:13.221Z,92.39
2023-02-07T19:05:14.913Z,90.22
2023-02-07T19:08:16.338Z,88.24
2023-02-07T19:11:19.340Z,86.30
2023-02-07T19:14:24.050Z,84.82
2023-02-07T19:17:25.622Z,81.80
2023-02-07T19:20:27.111Z,80.95
2023-02-07T19:23:28.657Z,79.83
2023-02-07T19:26:30.442Z,79.62
2023-02-07T19:29:33.461Z,80.27
2023-02-07T19:32:35.224Z,80.36
2023-02-07T19:35:38.122Z,79.79
2023-02-07T19:38:39.897Z,79.54
2023-02-07T19:41:41.381Z,78.88
2023-02-07T19:44:43.014Z,79.09
2023-02-07T19:47:44.462Z,79.34
2023-02-07T19:50:45.999Z,79.32
2023-02-07T19:53:49.941Z,79.09
2023-02-07T19:56:51.416Z,79.43
2023-02-07T19:59:52.930Z,79.92
2023-02-07T20:02:54.356Z,79.95
2023-02-07T20:06:00.089Z,79.72
2023-02-07T20:09:05.611Z,79.61
2023-02-07T20:12:07.460Z,80.24
2023-02-07T20:15:09.607Z,80.21
2023-02-07T20:18:13.225Z,80.24
2023-02-07T20:21:17.254Z,80.36
2023-02-07T20:24:19.407Z,79.67
2023-02-07T20:27:21.044Z,79.38
2023-02-07T20:30:22.499Z,78.75
2023-02-07T20:33:24.262Z,78.35
2023-02-07T20:36:26.429Z,78.09
2023-02-07T20:39:30.593Z,78.10
2023-02-07T20:42:32.018Z,78.63
2023-02-07T20:45:33.619Z,78.72
2023-02-07T20:48:35.274Z,79.47
2023-02-07T20:51:37.936Z,79.62
2023-02-07T20:54:39.384Z,79.19
2023-02-07T20:57:40.934Z,79.31
2023-02-07T21:00:42.510Z,79.58
2023-02-07T21:03:46.666Z,79.87
2023-02-07T21:06:48.602Z,79.65
2023-02-07T21:09:51.101Z,79.37
2023-02-07T21:12:52.601Z,78.52
2023-02-07T21:16:03.074Z,78.32
2023-02-07T21:19:05.136Z,78.74
2023-02-07T21:22:06.821Z,79.58
2023-02-07T21:25:08.373Z,79.65
2023-02-07T21:28:10.604Z,80.13
2023-02-07T21:31:19.928Z,80.59
2023-02-07T21:34:22.212Z,80.49
2023-02-07T21:37:23.849Z,80.98
2023-02-07T21:40:26.327Z,80.85
2023-02-07T21:43:27.892Z,81.49
2023-02-07T21:46:34.956Z,81.60
2023-02-07T21:49:37.772Z,82.40
2023-02-07T21:52:39.798Z,82.71
2023-02-07T21:55:41.312Z,82.52
2023-02-07T21:58:43.398Z,82.93
2023-02-07T22:01:46.377Z,82.69
2023-02-07T22:04:47.894Z,83.19
2023-02-07T22:07:49.358Z,83.16
2023-02-07T22:10:50.889Z,83.89
2023-02-07T22:13:53.671Z,84.13
2023-02-07T22:16:57.372Z,84.11
2023-02-07T22:19:58.838Z,84.16
2023-02-07T22:23:00.332Z,84.42
2023-02-07T22:26:02.461Z,84.83
2023-02-07T22:29:06.234Z,85.20
2023-02-07T22:32:07.740Z,85.68
2023-02-07T22:35:09.194Z,85.35
2023-02-07T22:38:13.159Z,85.10
2023-02-07T22:41:15.729Z,84.37
2023-02-07T22:44:17.220Z,83.88
2023-02-07T22:47:18.718Z,81.92
2023-02-07T22:50:20.573Z,81.41
2023-02-07T22:53:22.140Z,80.07
2023-02-07T22:56:24.140Z,79.44
2023-02-07T22:59:25.567Z,78.92
2023-02-07T23:02:28.240Z,78.20
2023-02-07T23:05:29.781Z,77.53
2023-02-07T23:08:31.465Z,76.54
2023-02-07T23:11:33.567Z,75.55
2023-02-07T23:14:35.072Z,75.53
2023-02-07T23:17:36.543Z,73.09
2023-02-07T23:20:38.139Z,71.78
2023-02-07T23:23:40.287Z,71.73
2023-02-07T23:26:41.870Z,70.69
2023-02-07T23:29:43.358Z,70.56
2023-02-07T23:32:44.818Z,70.65
2023-02-07T23:35:46.311Z,70.77
2023-02-07T23:38:48.782Z,69.99
2023-02-07T23:41:50.308Z,69.72
2023-02-07T23:44:51.786Z,69.49
2023-02-07T23:47:53.802Z,69.26
2023-02-07T23:50:57.578Z,69.39
2023-02-07T23:53:59.052Z,70.02
2023-02-07T23:57:00.696Z,70.11
